sensor_id;sensor_type;location;lat;lon;timestamp;P1;durP1;ratioP1;P2;durP2;ratioP2
78893;SDS011;68282;42.698;23.350;2023-06-10T00:02:20;12.70;;;6.63;;
78893;SDS011;68282;42.698;23.350;2023-06-10T00:04:45;8.25;;;5.32;;
78893;SDS011;68282;42.698;23.350;2023-06-10T00:07:11;8.57;;;6.10;;
78893;SDS011;68282;42.698;23.350;2023-06-10T00:09:37;9.38;;;5.30;;
78893;SDS011;68282;42.698;23.350;2023-06-10T00:12:06;9.65;;;5.88;;
78893;SDS011;68282;42.698;23.350;2023-06-10T00:14:36;10.00;;;5.85;;
78893;SDS011;68282;42.698;23.350;2023-06-10T00:17:03;9.75;;;5.93;;
78893;SDS011;68282;42.698;23.350;2023-06-10T00:19:28;10.27;;;5.72;;
78893;SDS011;68282;42.698;23.350;2023-06-10T00:21:55;8.48;;;5.65;;
78893;SDS011;68282;42.698;23.350;2023-06-10T00:24:21;7.63;;;5.35;;
78893;SDS011;68282;42.698;23.350;2023-06-10T00:26:47;7.93;;;5.63;;
78893;SDS011;68282;42.698;23.350;2023-06-10T00:29:12;9.18;;;5.78;;
78893;SDS011;68282;42.698;23.350;2023-06-10T00:31:39;7.40;;;5.68;;
78893;SDS011;68282;42.698;23.350;2023-06-10T00:34:05;10.77;;;5.95;;
78893;SDS011;68282;42.698;23.350;2023-06-10T00:36:32;7.85;;;5.50;;
78893;SDS011;68282;42.698;23.350;2023-06-10T00:38:57;8.50;;;5.55;;
78893;SDS011;68282;42.698;23.350;2023-06-10T00:41:23;7.63;;;5.50;;
78893;SDS011;68282;42.698;23.350;2023-06-10T00:43:48;7.57;;;5.80;;
78893;SDS011;68282;42.698;23.350;2023-06-10T00:46:14;7.43;;;5.50;;
78893;SDS011;68282;42.698;23.350;2023-06-10T00:48:40;7.38;;;5.43;;
78893;SDS011;68282;42.698;23.350;2023-06-10T00:51:08;7.25;;;4.82;;
78893;SDS011;68282;42.698;23.350;2023-06-10T00:53:39;8.25;;;5.93;;
78893;SDS011;68282;42.698;23.350;2023-06-10T00:56:06;9.02;;;5.75;;
78893;SDS011;68282;42.698;23.350;2023-06-10T00:58:31;7.05;;;5.50;;
78893;SDS011;68282;42.698;23.350;2023-06-10T01:00:57;6.85;;;5.00;;
78893;SDS011;68282;42.698;23.350;2023-06-10T01:03:23;8.93;;;5.80;;
78893;SDS011;68282;42.698;23.350;2023-06-10T01:05:50;10.20;;;6.15;;
78893;SDS011;68282;42.698;23.350;2023-06-10T01:08:40;8.05;;;6.25;;
78893;SDS011;68282;42.698;23.350;2023-06-10T01:11:36;9.63;;;5.50;;
78893;SDS011;68282;42.698;23.350;2023-06-10T01:14:09;8.10;;;6.10;;
78893;SDS011;68282;42.698;23.350;2023-06-10T01:16:34;11.75;;;5.85;;
78893;SDS011;68282;42.698;23.350;2023-06-10T01:19:02;6.93;;;5.40;;
78893;SDS011;68282;42.698;23.350;2023-06-10T01:21:28;8.32;;;5.10;;
78893;SDS011;68282;42.698;23.350;2023-06-10T01:23:54;8.18;;;5.95;;
78893;SDS011;68282;42.698;23.350;2023-06-10T01:26:22;8.55;;;5.55;;
78893;SDS011;68282;42.698;23.350;2023-06-10T01:28:53;8.60;;;5.22;;
78893;SDS011;68282;42.698;23.350;2023-06-10T01:34:12;7.97;;;5.82;;
78893;SDS011;68282;42.698;23.350;2023-06-10T01:36:40;7.20;;;5.30;;
78893;SDS011;68282;42.698;23.350;2023-06-10T01:39:08;11.10;;;5.53;;
78893;SDS011;68282;42.698;23.350;2023-06-10T01:41:36;7.90;;;5.45;;
78893;SDS011;68282;42.698;23.350;2023-06-10T01:44:03;8.10;;;6.20;;
78893;SDS011;68282;42.698;23.350;2023-06-10T01:46:29;7.75;;;5.65;;
78893;SDS011;68282;42.698;23.350;2023-06-10T01:48:54;10.13;;;6.25;;
78893;SDS011;68282;42.698;23.350;2023-06-10T01:51:20;10.98;;;6.00;;
78893;SDS011;68282;42.698;23.350;2023-06-10T01:53:46;9.70;;;5.57;;
78893;SDS011;68282;42.698;23.350;2023-06-10T01:56:11;8.57;;;6.20;;
78893;SDS011;68282;42.698;23.350;2023-06-10T01:58:41;8.63;;;5.75;;
78893;SDS011;68282;42.698;23.350;2023-06-10T02:01:07;7.82;;;5.93;;
78893;SDS011;68282;42.698;23.350;2023-06-10T02:03:32;9.40;;;5.45;;
78893;SDS011;68282;42.698;23.350;2023-06-10T02:05:58;9.40;;;6.40;;
78893;SDS011;68282;42.698;23.350;2023-06-10T02:08:23;9.30;;;6.20;;
78893;SDS011;68282;42.698;23.350;2023-06-10T02:10:48;8.15;;;6.43;;
78893;SDS011;68282;42.698;23.350;2023-06-10T02:13:14;13.18;;;6.85;;
78893;SDS011;68282;42.698;23.350;2023-06-10T02:15:39;10.35;;;6.45;;
78893;SDS011;68282;42.698;23.350;2023-06-10T02:18:05;10.43;;;6.22;;
78893;SDS011;68282;42.698;23.350;2023-06-10T02:20:30;9.88;;;6.75;;
78893;SDS011;68282;42.698;23.350;2023-06-10T02:22:56;10.32;;;6.55;;
78893;SDS011;68282;42.698;23.350;2023-06-10T02:25:22;8.70;;;6.18;;
78893;SDS011;68282;42.698;23.350;2023-06-10T02:27:47;8.50;;;5.72;;
78893;SDS011;68282;42.698;23.350;2023-06-10T02:30:13;8.07;;;5.88;;
78893;SDS011;68282;42.698;23.350;2023-06-10T02:32:39;7.50;;;5.35;;
78893;SDS011;68282;42.698;23.350;2023-06-10T02:35:06;8.88;;;6.30;;
78893;SDS011;68282;42.698;23.350;2023-06-10T02:37:31;10.02;;;6.68;;
78893;SDS011;68282;42.698;23.350;2023-06-10T02:39:57;10.57;;;6.95;;
78893;SDS011;68282;42.698;23.350;2023-06-10T02:42:22;10.70;;;5.68;;
78893;SDS011;68282;42.698;23.350;2023-06-10T02:44:47;10.00;;;5.90;;
78893;SDS011;68282;42.698;23.350;2023-06-10T02:47:13;7.97;;;6.15;;
78893;SDS011;68282;42.698;23.350;2023-06-10T02:49:38;9.95;;;5.78;;
78893;SDS011;68282;42.698;23.350;2023-06-10T02:52:04;9.05;;;5.97;;
78893;SDS011;68282;42.698;23.350;2023-06-10T02:54:29;7.72;;;5.75;;
78893;SDS011;68282;42.698;23.350;2023-06-10T02:56:55;9.98;;;5.95;;
78893;SDS011;68282;42.698;23.350;2023-06-10T02:59:21;9.60;;;6.38;;
78893;SDS011;68282;42.698;23.350;2023-06-10T03:01:46;8.65;;;5.95;;
78893;SDS011;68282;42.698;23.350;2023-06-10T03:04:12;10.23;;;6.25;;
78893;SDS011;68282;42.698;23.350;2023-06-10T03:06:38;7.13;;;5.82;;
78893;SDS011;68282;42.698;23.350;2023-06-10T03:09:06;10.13;;;5.60;;
78893;SDS011;68282;42.698;23.350;2023-06-10T03:11:32;10.52;;;7.18;;
78893;SDS011;68282;42.698;23.350;2023-06-10T03:13:58;12.02;;;6.72;;
78893;SDS011;68282;42.698;23.350;2023-06-10T03:16:23;10.77;;;6.97;;
78893;SDS011;68282;42.698;23.350;2023-06-10T03:18:50;9.30;;;6.20;;
78893;SDS011;68282;42.698;23.350;2023-06-10T03:21:16;11.10;;;7.40;;
78893;SDS011;68282;42.698;23.350;2023-06-10T03:23:41;10.07;;;6.68;;
78893;SDS011;68282;42.698;23.350;2023-06-10T03:26:07;9.20;;;6.95;;
78893;SDS011;68282;42.698;23.350;2023-06-10T03:28:32;10.85;;;6.65;;
78893;SDS011;68282;42.698;23.350;2023-06-10T03:30:58;8.40;;;6.40;;
78893;SDS011;68282;42.698;23.350;2023-06-10T03:33:23;8.52;;;6.88;;
78893;SDS011;68282;42.698;23.350;2023-06-10T03:35:49;10.20;;;6.32;;
78893;SDS011;68282;42.698;23.350;2023-06-10T03:38:14;11.98;;;5.13;;
78893;SDS011;68282;42.698;23.350;2023-06-10T03:40:40;9.25;;;5.78;;
78893;SDS011;68282;42.698;23.350;2023-06-10T03:43:05;6.95;;;5.63;;
78893;SDS011;68282;42.698;23.350;2023-06-10T03:45:31;8.65;;;4.55;;
78893;SDS011;68282;42.698;23.350;2023-06-10T03:47:57;6.55;;;4.30;;
78893;SDS011;68282;42.698;23.350;2023-06-10T03:50:22;7.07;;;4.63;;
78893;SDS011;68282;42.698;23.350;2023-06-10T03:52:49;7.55;;;4.57;;
78893;SDS011;68282;42.698;23.350;2023-06-10T03:55:15;5.78;;;4.20;;
78893;SDS011;68282;42.698;23.350;2023-06-10T03:57:41;7.15;;;4.57;;
78893;SDS011;68282;42.698;23.350;2023-06-10T04:00:07;8.10;;;4.57;;
78893;SDS011;68282;42.698;23.350;2023-06-10T04:02:36;7.00;;;4.82;;
78893;SDS011;68282;42.698;23.350;2023-06-10T04:05:01;8.73;;;5.03;;
78893;SDS011;68282;42.698;23.350;2023-06-10T04:07:27;9.23;;;5.95;;
78893;SDS011;68282;42.698;23.350;2023-06-10T04:09:53;6.95;;;4.78;;
78893;SDS011;68282;42.698;23.350;2023-06-10T04:12:19;6.75;;;4.88;;
78893;SDS011;68282;42.698;23.350;2023-06-10T04:14:44;8.73;;;5.90;;
78893;SDS011;68282;42.698;23.350;2023-06-10T04:17:09;7.40;;;5.40;;
78893;SDS011;68282;42.698;23.350;2023-06-10T04:19:35;6.28;;;4.85;;
78893;SDS011;68282;42.698;23.350;2023-06-10T04:22:01;6.70;;;4.60;;
78893;SDS011;68282;42.698;23.350;2023-06-10T04:24:28;7.30;;;4.90;;
78893;SDS011;68282;42.698;23.350;2023-06-10T04:26:54;8.23;;;4.90;;
78893;SDS011;68282;42.698;23.350;2023-06-10T04:29:19;7.63;;;5.18;;
78893;SDS011;68282;42.698;23.350;2023-06-10T04:31:44;7.97;;;4.63;;
78893;SDS011;68282;42.698;23.350;2023-06-10T04:34:11;8.30;;;4.75;;
78893;SDS011;68282;42.698;23.350;2023-06-10T04:36:37;7.80;;;5.32;;
78893;SDS011;68282;42.698;23.350;2023-06-10T04:39:03;8.07;;;5.07;;
78893;SDS011;68282;42.698;23.350;2023-06-10T04:41:28;7.93;;;5.38;;
78893;SDS011;68282;42.698;23.350;2023-06-10T04:43:54;8.38;;;5.00;;
78893;SDS011;68282;42.698;23.350;2023-06-10T04:46:19;6.85;;;5.13;;
78893;SDS011;68282;42.698;23.350;2023-06-10T04:48:45;9.13;;;4.82;;
78893;SDS011;68282;42.698;23.350;2023-06-10T04:51:12;7.95;;;5.22;;
78893;SDS011;68282;42.698;23.350;2023-06-10T04:53:38;8.80;;;5.43;;
78893;SDS011;68282;42.698;23.350;2023-06-10T04:56:04;6.80;;;5.43;;
78893;SDS011;68282;42.698;23.350;2023-06-10T04:58:29;8.57;;;6.22;;
78893;SDS011;68282;42.698;23.350;2023-06-10T05:00:55;6.88;;;5.10;;
78893;SDS011;68282;42.698;23.350;2023-06-10T05:03:20;8.30;;;5.63;;
78893;SDS011;68282;42.698;23.350;2023-06-10T05:05:46;7.28;;;5.63;;
78893;SDS011;68282;42.698;23.350;2023-06-10T05:08:11;11.38;;;5.95;;
78893;SDS011;68282;42.698;23.350;2023-06-10T05:10:36;11.48;;;6.28;;
78893;SDS011;68282;42.698;23.350;2023-06-10T05:13:02;8.13;;;5.35;;
78893;SDS011;68282;42.698;23.350;2023-06-10T05:15:28;7.25;;;5.05;;
78893;SDS011;68282;42.698;23.350;2023-06-10T05:17:56;6.88;;;5.68;;
78893;SDS011;68282;42.698;23.350;2023-06-10T05:23:07;10.98;;;6.13;;
78893;SDS011;68282;42.698;23.350;2023-06-10T05:25:33;12.32;;;6.60;;
78893;SDS011;68282;42.698;23.350;2023-06-10T05:27:58;12.95;;;6.47;;
78893;SDS011;68282;42.698;23.350;2023-06-10T05:30:24;10.18;;;6.50;;
78893;SDS011;68282;42.698;23.350;2023-06-10T05:32:50;7.20;;;5.72;;
78893;SDS011;68282;42.698;23.350;2023-06-10T05:35:16;8.70;;;6.25;;
78893;SDS011;68282;42.698;23.350;2023-06-10T05:37:42;9.98;;;6.28;;
78893;SDS011;68282;42.698;23.350;2023-06-10T05:40:08;11.50;;;6.50;;
78893;SDS011;68282;42.698;23.350;2023-06-10T05:42:34;7.57;;;5.95;;
78893;SDS011;68282;42.698;23.350;2023-06-10T05:44:59;9.07;;;6.72;;
78893;SDS011;68282;42.698;23.350;2023-06-10T05:47:25;8.68;;;6.45;;
78893;SDS011;68282;42.698;23.350;2023-06-10T05:49:50;10.05;;;7.07;;
78893;SDS011;68282;42.698;23.350;2023-06-10T05:52:16;8.52;;;6.35;;
78893;SDS011;68282;42.698;23.350;2023-06-10T05:54:43;11.35;;;7.03;;
78893;SDS011;68282;42.698;23.350;2023-06-10T05:57:08;10.05;;;7.25;;
78893;SDS011;68282;42.698;23.350;2023-06-10T05:59:35;10.68;;;7.47;;
78893;SDS011;68282;42.698;23.350;2023-06-10T06:02:00;8.65;;;6.63;;
78893;SDS011;68282;42.698;23.350;2023-06-10T06:04:26;10.48;;;7.32;;
78893;SDS011;68282;42.698;23.350;2023-06-10T06:06:51;9.10;;;6.80;;
78893;SDS011;68282;42.698;23.350;2023-06-10T06:09:16;10.77;;;7.63;;
78893;SDS011;68282;42.698;23.350;2023-06-10T06:11:42;13.23;;;7.38;;
78893;SDS011;68282;42.698;23.350;2023-06-10T06:14:07;10.20;;;7.82;;
78893;SDS011;68282;42.698;23.350;2023-06-10T06:16:33;10.68;;;6.38;;
78893;SDS011;68282;42.698;23.350;2023-06-10T06:18:58;12.55;;;7.75;;
78893;SDS011;68282;42.698;23.350;2023-06-10T06:21:23;11.98;;;7.63;;
78893;SDS011;68282;42.698;23.350;2023-06-10T06:23:49;10.63;;;7.10;;
78893;SDS011;68282;42.698;23.350;2023-06-10T06:26:14;11.25;;;7.43;;
78893;SDS011;68282;42.698;23.350;2023-06-10T06:28:40;14.75;;;7.25;;
78893;SDS011;68282;42.698;23.350;2023-06-10T06:31:06;12.15;;;7.28;;
78893;SDS011;68282;42.698;23.350;2023-06-10T06:33:32;13.27;;;7.68;;
78893;SDS011;68282;42.698;23.350;2023-06-10T06:35:57;13.23;;;7.47;;
78893;SDS011;68282;42.698;23.350;2023-06-10T06:38:22;12.20;;;7.95;;
78893;SDS011;68282;42.698;23.350;2023-06-10T06:40:48;11.98;;;7.35;;
78893;SDS011;68282;42.698;23.350;2023-06-10T06:43:13;9.70;;;7.40;;
78893;SDS011;68282;42.698;23.350;2023-06-10T06:45:38;11.30;;;7.65;;
78893;SDS011;68282;42.698;23.350;2023-06-10T06:48:04;12.15;;;7.03;;
78893;SDS011;68282;42.698;23.350;2023-06-10T06:50:30;8.95;;;6.30;;
78893;SDS011;68282;42.698;23.350;2023-06-10T06:52:55;10.45;;;5.68;;
78893;SDS011;68282;42.698;23.350;2023-06-10T06:55:21;7.88;;;6.13;;
78893;SDS011;68282;42.698;23.350;2023-06-10T06:57:46;10.00;;;5.93;;
78893;SDS011;68282;42.698;23.350;2023-06-10T07:00:12;8.10;;;6.00;;
78893;SDS011;68282;42.698;23.350;2023-06-10T07:02:37;10.38;;;6.28;;
78893;SDS011;68282;42.698;23.350;2023-06-10T07:05:03;14.02;;;6.30;;
78893;SDS011;68282;42.698;23.350;2023-06-10T07:07:28;8.30;;;5.75;;
78893;SDS011;68282;42.698;23.350;2023-06-10T07:09:54;10.40;;;4.75;;
78893;SDS011;68282;42.698;23.350;2023-06-10T07:12:19;9.73;;;5.43;;
78893;SDS011;68282;42.698;23.350;2023-06-10T07:14:48;9.43;;;4.97;;
78893;SDS011;68282;42.698;23.350;2023-06-10T07:17:14;11.02;;;5.60;;
78893;SDS011;68282;42.698;23.350;2023-06-10T07:19:39;5.40;;;4.22;;
78893;SDS011;68282;42.698;23.350;2023-06-10T07:22:05;9.15;;;4.68;;
78893;SDS011;68282;42.698;23.350;2023-06-10T07:24:30;15.70;;;5.32;;
78893;SDS011;68282;42.698;23.350;2023-06-10T07:26:55;8.25;;;5.00;;
78893;SDS011;68282;42.698;23.350;2023-06-10T07:29:21;8.77;;;4.82;;
78893;SDS011;68282;42.698;23.350;2023-06-10T07:31:46;7.70;;;4.15;;
78893;SDS011;68282;42.698;23.350;2023-06-10T07:34:12;5.15;;;3.88;;
78893;SDS011;68282;42.698;23.350;2023-06-10T07:36:37;4.60;;;3.60;;
78893;SDS011;68282;42.698;23.350;2023-06-10T07:39:03;5.88;;;3.80;;
78893;SDS011;68282;42.698;23.350;2023-06-10T07:41:29;6.68;;;4.05;;
78893;SDS011;68282;42.698;23.350;2023-06-10T07:43:55;6.13;;;4.13;;
78893;SDS011;68282;42.698;23.350;2023-06-10T07:46:21;5.55;;;3.92;;
78893;SDS011;68282;42.698;23.350;2023-06-10T07:48:47;6.32;;;4.57;;
78893;SDS011;68282;42.698;23.350;2023-06-10T07:51:13;5.53;;;3.70;;
78893;SDS011;68282;42.698;23.350;2023-06-10T07:53:40;8.18;;;4.03;;
78893;SDS011;68282;42.698;23.350;2023-06-10T07:56:06;7.43;;;4.57;;
78893;SDS011;68282;42.698;23.350;2023-06-10T07:58:31;5.50;;;3.95;;
78893;SDS011;68282;42.698;23.350;2023-06-10T08:00:56;4.57;;;3.95;;
78893;SDS011;68282;42.698;23.350;2023-06-10T08:03:22;12.52;;;8.35;;
78893;SDS011;68282;42.698;23.350;2023-06-10T08:05:47;11.15;;;5.20;;
78893;SDS011;68282;42.698;23.350;2023-06-10T08:08:13;7.03;;;4.40;;
78893;SDS011;68282;42.698;23.350;2023-06-10T08:10:38;5.35;;;4.25;;
78893;SDS011;68282;42.698;23.350;2023-06-10T08:13:04;6.25;;;4.25;;
78893;SDS011;68282;42.698;23.350;2023-06-10T08:15:29;7.95;;;4.35;;
78893;SDS011;68282;42.698;23.350;2023-06-10T08:17:55;5.53;;;3.88;;
78893;SDS011;68282;42.698;23.350;2023-06-10T08:20:21;5.32;;;3.17;;
78893;SDS011;68282;42.698;23.350;2023-06-10T08:22:47;6.78;;;3.78;;
78893;SDS011;68282;42.698;23.350;2023-06-10T08:25:12;6.10;;;4.00;;
78893;SDS011;68282;42.698;23.350;2023-06-10T08:27:37;6.65;;;4.20;;
78893;SDS011;68282;42.698;23.350;2023-06-10T08:30:03;5.43;;;3.83;;
78893;SDS011;68282;42.698;23.350;2023-06-10T08:32:29;5.35;;;3.30;;
78893;SDS011;68282;42.698;23.350;2023-06-10T08:34:54;7.57;;;3.75;;
78893;SDS011;68282;42.698;23.350;2023-06-10T08:37:20;5.95;;;3.13;;
78893;SDS011;68282;42.698;23.350;2023-06-10T08:39:45;4.45;;;3.33;;
78893;SDS011;68282;42.698;23.350;2023-06-10T08:42:13;4.55;;;3.40;;
78893;SDS011;68282;42.698;23.350;2023-06-10T08:44:42;8.00;;;4.00;;
78893;SDS011;68282;42.698;23.350;2023-06-10T08:47:13;7.47;;;3.40;;
78893;SDS011;68282;42.698;23.350;2023-06-10T08:49:42;5.38;;;3.60;;
78893;SDS011;68282;42.698;23.350;2023-06-10T08:52:10;5.03;;;3.60;;
78893;SDS011;68282;42.698;23.350;2023-06-10T08:54:40;8.13;;;3.88;;
78893;SDS011;68282;42.698;23.350;2023-06-10T08:57:11;6.88;;;3.60;;
78893;SDS011;68282;42.698;23.350;2023-06-10T08:59:37;4.32;;;3.33;;
78893;SDS011;68282;42.698;23.350;2023-06-10T09:02:04;5.15;;;3.03;;
78893;SDS011;68282;42.698;23.350;2023-06-10T09:04:30;6.57;;;3.25;;
78893;SDS011;68282;42.698;23.350;2023-06-10T09:06:55;8.93;;;3.20;;
78893;SDS011;68282;42.698;23.350;2023-06-10T09:09:22;4.63;;;3.03;;
78893;SDS011;68282;42.698;23.350;2023-06-10T09:11:48;4.35;;;2.97;;
78893;SDS011;68282;42.698;23.350;2023-06-10T09:14:14;4.03;;;3.10;;
78893;SDS011;68282;42.698;23.350;2023-06-10T09:16:41;4.38;;;2.88;;
78893;SDS011;68282;42.698;23.350;2023-06-10T09:19:07;4.93;;;3.38;;
78893;SDS011;68282;42.698;23.350;2023-06-10T09:21:33;7.00;;;3.40;;
78893;SDS011;68282;42.698;23.350;2023-06-10T09:24:00;6.78;;;3.42;;
78893;SDS011;68282;42.698;23.350;2023-06-10T09:26:29;4.80;;;3.25;;
78893;SDS011;68282;42.698;23.350;2023-06-10T09:29:07;5.07;;;3.17;;
78893;SDS011;68282;42.698;23.350;2023-06-10T09:31:34;3.85;;;2.85;;
78893;SDS011;68282;42.698;23.350;2023-06-10T09:34:05;5.65;;;2.90;;
78893;SDS011;68282;42.698;23.350;2023-06-10T09:36:32;4.80;;;3.20;;
78893;SDS011;68282;42.698;23.350;2023-06-10T09:38:58;5.95;;;3.38;;
78893;SDS011;68282;42.698;23.350;2023-06-10T09:41:33;4.40;;;2.92;;
78893;SDS011;68282;42.698;23.350;2023-06-10T09:44:15;6.00;;;2.92;;
78893;SDS011;68282;42.698;23.350;2023-06-10T09:46:42;4.80;;;3.10;;
78893;SDS011;68282;42.698;23.350;2023-06-10T09:49:10;5.45;;;4.22;;
78893;SDS011;68282;42.698;23.350;2023-06-10T09:51:35;4.30;;;3.03;;
78893;SDS011;68282;42.698;23.350;2023-06-10T09:54:04;5.05;;;3.10;;
78893;SDS011;68282;42.698;23.350;2023-06-10T09:56:34;7.38;;;3.13;;
78893;SDS011;68282;42.698;23.350;2023-06-10T09:59:02;4.88;;;3.17;;
78893;SDS011;68282;42.698;23.350;2023-06-10T10:03:56;5.55;;;3.83;;
78893;SDS011;68282;42.698;23.350;2023-06-10T10:06:22;6.43;;;3.88;;
78893;SDS011;68282;42.698;23.350;2023-06-10T10:08:49;6.25;;;3.58;;
78893;SDS011;68282;42.698;23.350;2023-06-10T10:11:20;6.03;;;2.92;;
78893;SDS011;68282;42.698;23.350;2023-06-10T10:13:52;7.43;;;3.28;;
78893;SDS011;68282;42.698;23.350;2023-06-10T10:16:37;4.78;;;3.00;;
78893;SDS011;68282;42.698;23.350;2023-06-10T10:19:16;6.38;;;3.35;;
78893;SDS011;68282;42.698;23.350;2023-06-10T10:21:53;5.00;;;3.55;;
78893;SDS011;68282;42.698;23.350;2023-06-10T10:24:23;5.60;;;3.90;;
78893;SDS011;68282;42.698;23.350;2023-06-10T10:26:58;5.97;;;3.78;;
78893;SDS011;68282;42.698;23.350;2023-06-10T10:29:30;9.35;;;5.13;;
78893;SDS011;68282;42.698;23.350;2023-06-10T10:32:03;5.65;;;3.53;;
78893;SDS011;68282;42.698;23.350;2023-06-10T10:37:19;6.13;;;3.65;;
78893;SDS011;68282;42.698;23.350;2023-06-10T10:39:45;5.65;;;3.83;;
78893;SDS011;68282;42.698;23.350;2023-06-10T10:42:10;5.30;;;3.03;;
78893;SDS011;68282;42.698;23.350;2023-06-10T10:44:40;4.28;;;3.03;;
78893;SDS011;68282;42.698;23.350;2023-06-10T10:49:33;6.68;;;3.40;;
78893;SDS011;68282;42.698;23.350;2023-06-10T10:52:01;10.00;;;5.78;;
78893;SDS011;68282;42.698;23.350;2023-06-10T10:54:36;4.50;;;3.55;;
78893;SDS011;68282;42.698;23.350;2023-06-10T11:04:47;27.05;;;20.25;;
78893;SDS011;68282;42.698;23.350;2023-06-10T11:07:13;7.35;;;4.03;;
78893;SDS011;68282;42.698;23.350;2023-06-10T11:09:59;6.68;;;3.65;;
78893;SDS011;68282;42.698;23.350;2023-06-10T11:12:40;5.57;;;3.20;;
78893;SDS011;68282;42.698;23.350;2023-06-10T11:15:21;5.72;;;3.92;;
78893;SDS011;68282;42.698;23.350;2023-06-10T11:31:26;6.43;;;4.88;;
78893;SDS011;68282;42.698;23.350;2023-06-10T11:36:26;7.00;;;4.25;;
78893;SDS011;68282;42.698;23.350;2023-06-10T11:38:58;5.20;;;4.07;;
78893;SDS011;68282;42.698;23.350;2023-06-10T11:41:26;6.20;;;3.30;;
78893;SDS011;68282;42.698;23.350;2023-06-10T11:43:54;5.85;;;3.33;;
78893;SDS011;68282;42.698;23.350;2023-06-10T11:46:23;6.07;;;3.10;;
78893;SDS011;68282;42.698;23.350;2023-06-10T11:48:52;5.28;;;3.35;;
78893;SDS011;68282;42.698;23.350;2023-06-10T11:51:20;5.18;;;3.10;;
78893;SDS011;68282;42.698;23.350;2023-06-10T11:53:49;4.57;;;3.05;;
78893;SDS011;68282;42.698;23.350;2023-06-10T11:56:25;5.13;;;2.88;;
78893;SDS011;68282;42.698;23.350;2023-06-10T11:58:55;5.47;;;2.88;;
78893;SDS011;68282;42.698;23.350;2023-06-10T12:01:29;3.80;;;2.70;;
78893;SDS011;68282;42.698;23.350;2023-06-10T12:04:05;4.18;;;2.90;;
78893;SDS011;68282;42.698;23.350;2023-06-10T12:06:41;5.05;;;2.72;;
78893;SDS011;68282;42.698;23.350;2023-06-10T12:09:17;4.20;;;2.88;;
78893;SDS011;68282;42.698;23.350;2023-06-10T12:11:43;4.30;;;2.85;;
78893;SDS011;68282;42.698;23.350;2023-06-10T12:14:09;3.92;;;2.60;;
78893;SDS011;68282;42.698;23.350;2023-06-10T12:16:34;3.53;;;2.53;;
78893;SDS011;68282;42.698;23.350;2023-06-10T12:19:01;4.45;;;2.72;;
78893;SDS011;68282;42.698;23.350;2023-06-10T12:21:31;5.60;;;2.90;;
78893;SDS011;68282;42.698;23.350;2023-06-10T12:24:08;4.15;;;2.78;;
78893;SDS011;68282;42.698;23.350;2023-06-10T12:29:01;4.88;;;3.38;;
78893;SDS011;68282;42.698;23.350;2023-06-10T12:31:59;4.93;;;2.92;;
78893;SDS011;68282;42.698;23.350;2023-06-10T12:34:28;5.07;;;2.55;;
78893;SDS011;68282;42.698;23.350;2023-06-10T12:36:56;4.68;;;2.55;;
78893;SDS011;68282;42.698;23.350;2023-06-10T12:39:22;3.80;;;2.58;;
78893;SDS011;68282;42.698;23.350;2023-06-10T12:41:48;4.13;;;2.75;;
78893;SDS011;68282;42.698;23.350;2023-06-10T12:44:14;5.97;;;3.30;;
78893;SDS011;68282;42.698;23.350;2023-06-10T12:46:40;3.75;;;2.88;;
78893;SDS011;68282;42.698;23.350;2023-06-10T12:49:05;7.25;;;2.90;;
78893;SDS011;68282;42.698;23.350;2023-06-10T12:51:31;5.85;;;3.30;;
78893;SDS011;68282;42.698;23.350;2023-06-10T12:53:56;4.50;;;3.20;;
78893;SDS011;68282;42.698;23.350;2023-06-10T12:56:22;4.00;;;2.95;;
78893;SDS011;68282;42.698;23.350;2023-06-10T12:58:48;4.88;;;2.92;;
78893;SDS011;68282;42.698;23.350;2023-06-10T13:01:14;4.60;;;2.97;;
78893;SDS011;68282;42.698;23.350;2023-06-10T13:03:39;6.43;;;2.90;;
78893;SDS011;68282;42.698;23.350;2023-06-10T13:06:05;4.55;;;2.95;;
78893;SDS011;68282;42.698;23.350;2023-06-10T13:08:31;5.13;;;2.80;;
78893;SDS011;68282;42.698;23.350;2023-06-10T13:10:57;5.43;;;2.58;;
78893;SDS011;68282;42.698;23.350;2023-06-10T13:13:23;5.60;;;3.10;;
78893;SDS011;68282;42.698;23.350;2023-06-10T13:15:49;5.28;;;3.00;;
78893;SDS011;68282;42.698;23.350;2023-06-10T13:18:15;4.65;;;2.40;;
78893;SDS011;68282;42.698;23.350;2023-06-10T13:20:42;4.70;;;2.83;;
78893;SDS011;68282;42.698;23.350;2023-06-10T13:23:08;10.75;;;3.40;;
78893;SDS011;68282;42.698;23.350;2023-06-10T13:25:33;9.65;;;3.75;;
78893;SDS011;68282;42.698;23.350;2023-06-10T13:27:58;8.18;;;3.75;;
78893;SDS011;68282;42.698;23.350;2023-06-10T13:30:24;10.48;;;4.40;;
78893;SDS011;68282;42.698;23.350;2023-06-10T13:32:49;7.00;;;3.42;;
78893;SDS011;68282;42.698;23.350;2023-06-10T13:35:15;6.28;;;3.60;;
78893;SDS011;68282;42.698;23.350;2023-06-10T13:37:40;5.20;;;3.55;;
78893;SDS011;68282;42.698;23.350;2023-06-10T13:40:06;6.43;;;3.47;;
78893;SDS011;68282;42.698;23.350;2023-06-10T13:42:32;7.47;;;3.40;;
78893;SDS011;68282;42.698;23.350;2023-06-10T13:44:58;6.72;;;4.03;;
78893;SDS011;68282;42.698;23.350;2023-06-10T13:47:24;8.73;;;4.18;;
78893;SDS011;68282;42.698;23.350;2023-06-10T13:49:50;5.53;;;3.53;;
78893;SDS011;68282;42.698;23.350;2023-06-10T13:52:15;9.38;;;3.80;;
78893;SDS011;68282;42.698;23.350;2023-06-10T13:54:41;5.47;;;4.20;;
78893;SDS011;68282;42.698;23.350;2023-06-10T13:57:06;5.47;;;3.45;;
78893;SDS011;68282;42.698;23.350;2023-06-10T13:59:32;7.40;;;3.67;;
78893;SDS011;68282;42.698;23.350;2023-06-10T14:01:57;6.35;;;3.88;;
78893;SDS011;68282;42.698;23.350;2023-06-10T14:04:23;7.63;;;4.00;;
78893;SDS011;68282;42.698;23.350;2023-06-10T14:06:48;6.38;;;4.35;;
78893;SDS011;68282;42.698;23.350;2023-06-10T14:09:14;8.88;;;4.10;;
78893;SDS011;68282;42.698;23.350;2023-06-10T14:11:39;8.10;;;3.58;;
78893;SDS011;68282;42.698;23.350;2023-06-10T14:14:05;5.40;;;3.47;;
78893;SDS011;68282;42.698;23.350;2023-06-10T14:16:31;5.85;;;3.97;;
78893;SDS011;68282;42.698;23.350;2023-06-10T14:18:56;6.65;;;4.00;;
78893;SDS011;68282;42.698;23.350;2023-06-10T14:21:22;6.43;;;3.95;;
78893;SDS011;68282;42.698;23.350;2023-06-10T14:23:47;7.25;;;4.20;;
78893;SDS011;68282;42.698;23.350;2023-06-10T14:26:14;5.40;;;3.75;;
78893;SDS011;68282;42.698;23.350;2023-06-10T14:28:39;9.48;;;4.25;;
78893;SDS011;68282;42.698;23.350;2023-06-10T14:31:05;6.35;;;4.15;;
78893;SDS011;68282;42.698;23.350;2023-06-10T14:33:30;6.00;;;3.97;;
78893;SDS011;68282;42.698;23.350;2023-06-10T14:35:56;4.75;;;3.42;;
78893;SDS011;68282;42.698;23.350;2023-06-10T14:38:22;5.95;;;4.38;;
78893;SDS011;68282;42.698;23.350;2023-06-10T14:40:48;7.70;;;3.47;;
78893;SDS011;68282;42.698;23.350;2023-06-10T14:43:13;5.82;;;3.75;;
78893;SDS011;68282;42.698;23.350;2023-06-10T14:45:39;5.38;;;3.38;;
78893;SDS011;68282;42.698;23.350;2023-06-10T14:48:05;5.45;;;3.63;;
78893;SDS011;68282;42.698;23.350;2023-06-10T14:50:32;7.60;;;4.03;;
78893;SDS011;68282;42.698;23.350;2023-06-10T14:53:01;5.65;;;3.78;;
78893;SDS011;68282;42.698;23.350;2023-06-10T14:55:26;5.30;;;3.88;;
78893;SDS011;68282;42.698;23.350;2023-06-10T14:57:52;5.10;;;3.85;;
78893;SDS011;68282;42.698;23.350;2023-06-10T15:00:17;6.22;;;4.10;;
78893;SDS011;68282;42.698;23.350;2023-06-10T15:02:47;9.18;;;5.22;;
78893;SDS011;68282;42.698;23.350;2023-06-10T15:05:13;6.40;;;3.70;;
78893;SDS011;68282;42.698;23.350;2023-06-10T15:07:43;4.78;;;3.85;;
78893;SDS011;68282;42.698;23.350;2023-06-10T15:10:10;8.88;;;3.85;;